Akiak, Alaska
Current Conditions -  °F | °C
As of 3:56 AM on Monday 20 Oct 2014 (Local Time) from PFKW Reporting Station
Light Snow Light Snow  
Wind Chill: 18°   Ceiling: 2500
Heat Index: 26°   Visibility: 5mi
Dew Point: 25°   Wind: 8mph
Humidity: 96%   Direction: 360°N
Pressure: 29.21"   Gusts: NA
Location:  60.92°N, 161.23°W
Report Text: PFKW 201156Z AUTO 36007KT 5SM -SN BR FEW009 BKN025 OVC035 M03/M04 A2921 RMK AO2 SLP892 P0000 60000 T10331039 11033 21039 56008 FZRANO
Loading
Personal Weather Stations






























Interactive Weather Map
Tropical Storm Tracking
New forecast layout! Learn more

10-Day Weather Forecast

Advertisements
Track Severe Weather on mobile